createdAt,value
2022-10-25T00:01:12.258Z,96.89
2022-10-25T00:03:38.555Z,97.48
2022-10-25T00:06:04.836Z,96.83
2022-10-25T00:08:31.292Z,96.96
2022-10-25T00:10:57.538Z,96.60
2022-10-25T00:13:24.082Z,96.42
2022-10-25T00:15:50.330Z,96.51
2022-10-25T00:18:16.611Z,95.80
2022-10-25T00:20:42.900Z,95.94
2022-10-25T00:23:09.413Z,95.84
2022-10-25T00:25:35.669Z,95.47
2022-10-25T00:28:01.920Z,95.48
2022-10-25T00:30:28.190Z,96.26
2022-10-25T00:32:54.590Z,97.27
2022-10-25T00:35:20.842Z,97.39
2022-10-25T00:37:47.122Z,97.22
2022-10-25T00:40:13.370Z,97.25
2022-10-25T00:42:39.624Z,97.42
2022-10-25T00:45:05.867Z,97.28
2022-10-25T00:47:33.480Z,96.51
2022-10-25T00:49:59.730Z,96.04
2022-10-25T00:52:26.131Z,95.41
2022-10-25T00:54:52.387Z,98.17
2022-10-25T00:57:18.655Z,97.37
2022-10-25T00:59:44.895Z,98.80
2022-10-25T01:02:11.293Z,98.22
2022-10-25T01:04:37.682Z,97.56
2022-10-25T01:07:03.947Z,96.74
2022-10-25T01:09:30.255Z,96.64
2022-10-25T01:11:56.504Z,97.29
2022-10-25T01:14:23.090Z,97.37
2022-10-25T01:16:49.348Z,96.55
2022-10-25T01:19:15.629Z,100.00
2022-10-25T01:21:41.874Z,100.00
2022-10-25T01:24:08.128Z,98.81
2022-10-25T01:26:34.388Z,98.77
2022-10-25T01:29:00.630Z,99.63
2022-10-25T01:31:26.937Z,99.90
2022-10-25T01:33:53.192Z,99.22
2022-10-25T01:36:19.502Z,99.40
2022-10-25T01:38:45.762Z,100.00
2022-10-25T01:41:12.053Z,100.00
2022-10-25T01:43:39.184Z,99.06
2022-10-25T01:46:05.364Z,98.22
2022-10-25T01:48:31.611Z,98.20
2022-10-25T01:50:57.866Z,98.46
2022-10-25T01:53:24.116Z,97.83
2022-10-25T01:55:50.355Z,99.72
2022-10-25T01:58:16.611Z,98.41
2022-10-25T02:00:42.899Z,99.94
2022-10-25T02:03:09.180Z,99.06
2022-10-25T02:05:35.433Z,98.47
2022-10-25T02:08:01.735Z,97.96
2022-10-25T02:10:28.185Z,98.12
2022-10-25T02:12:54.429Z,97.74
2022-10-25T02:15:20.680Z,98.35
2022-10-25T02:17:46.974Z,99.04
2022-10-25T02:20:13.332Z,100.00
2022-10-25T02:22:41.261Z,100.00
2022-10-25T02:25:07.537Z,100.00
2022-10-25T02:27:33.844Z,100.00
2022-10-25T02:30:00.124Z,100.00
2022-10-25T02:32:26.378Z,100.00
2022-10-25T02:34:52.672Z,100.00
2022-10-25T02:37:18.923Z,100.00
2022-10-25T02:39:45.479Z,100.00
2022-10-25T02:42:11.724Z,100.00
2022-10-25T02:44:37.991Z,100.00
2022-10-25T02:47:04.248Z,100.00
2022-10-25T02:49:30.551Z,100.00
2022-10-25T02:51:56.823Z,100.00
2022-10-25T02:54:23.078Z,99.84
2022-10-25T02:56:52.274Z,99.57
2022-10-25T02:59:18.964Z,99.65
2022-10-25T03:01:45.272Z,99.55
2022-10-25T03:04:11.592Z,99.31
2022-10-25T03:06:37.834Z,98.81
2022-10-25T03:09:04.112Z,98.50
2022-10-25T03:11:30.366Z,98.83
2022-10-25T03:13:56.643Z,99.54
2022-10-25T03:16:22.944Z,99.55
2022-10-25T03:18:49.199Z,99.55
2022-10-25T03:21:15.529Z,99.87
2022-10-25T03:23:41.851Z,99.46
2022-10-25T03:26:08.120Z,99.52
2022-10-25T03:28:34.532Z,99.47
2022-10-25T03:31:00.808Z,99.27
2022-10-25T03:33:27.442Z,99.51
2022-10-25T03:35:53.745Z,100.00
2022-10-25T03:38:19.983Z,100.00
2022-10-25T03:40:46.263Z,99.75
2022-10-25T03:43:12.578Z,99.60
2022-10-25T03:45:38.888Z,99.43
2022-10-25T03:48:05.132Z,99.69
2022-10-25T03:50:31.398Z,100.00
2022-10-25T03:52:57.688Z,100.00
2022-10-25T03:55:23.995Z,100.00
2022-10-25T03:57:50.283Z,100.00
2022-10-25T04:00:16.538Z,100.00
2022-10-25T04:02:42.829Z,100.00
2022-10-25T04:05:09.119Z,100.00
2022-10-25T04:07:35.379Z,100.00
2022-10-25T04:10:01.642Z,100.00
2022-10-25T04:12:27.889Z,100.00
2022-10-25T04:14:54.134Z,100.00
2022-10-25T04:17:20.550Z,100.00
2022-10-25T04:19:46.814Z,100.00
2022-10-25T04:22:13.237Z,100.00
2022-10-25T04:24:39.547Z,100.00
2022-10-25T04:27:05.818Z,100.00
2022-10-25T04:29:32.080Z,100.00
2022-10-25T04:31:58.342Z,100.00
2022-10-25T04:34:24.587Z,100.00
2022-10-25T04:36:50.844Z,100.00
2022-10-25T04:39:17.104Z,100.00
2022-10-25T04:41:43.419Z,100.00
2022-10-25T04:44:09.687Z,100.00
2022-10-25T04:46:35.991Z,100.00
2022-10-25T04:49:02.256Z,100.00
2022-10-25T04:51:28.671Z,100.00
2022-10-25T04:53:54.921Z,100.00
2022-10-25T04:56:21.182Z,100.00
2022-10-25T04:58:47.445Z,99.41
2022-10-25T05:01:13.770Z,98.78
2022-10-25T05:03:40.025Z,97.51
2022-10-25T05:06:06.497Z,97.69
2022-10-25T05:08:32.799Z,98.01
2022-10-25T05:10:59.070Z,98.25
2022-10-25T05:13:25.327Z,98.17
2022-10-25T05:15:51.592Z,98.09
2022-10-25T05:18:17.853Z,97.62
2022-10-25T05:20:44.482Z,97.59
2022-10-25T05:23:10.794Z,97.35
2022-10-25T05:25:37.077Z,97.04
2022-10-25T05:28:03.478Z,97.18
2022-10-25T05:30:29.740Z,97.84
2022-10-25T05:32:56.316Z,97.72
2022-10-25T05:35:22.570Z,97.72
2022-10-25T05:37:48.829Z,97.75
2022-10-25T05:40:18.322Z,97.11
2022-10-25T05:42:44.758Z,97.34
2022-10-25T05:45:11.250Z,97.54
2022-10-25T05:47:37.507Z,98.06
2022-10-25T05:50:03.750Z,97.42
2022-10-25T05:52:30.070Z,96.99
2022-10-25T05:54:56.318Z,96.90
2022-10-25T05:57:22.603Z,97.06
2022-10-25T05:59:48.850Z,96.68
2022-10-25T06:02:15.260Z,96.98
2022-10-25T06:04:41.574Z,96.89
2022-10-25T06:07:07.842Z,96.55
2022-10-25T06:09:34.086Z,97.45
2022-10-25T06:12:00.375Z,96.88
2022-10-25T06:14:26.626Z,96.99
2022-10-25T06:16:52.937Z,97.73
2022-10-25T06:19:19.196Z,97.32
2022-10-25T06:21:46.740Z,96.97
2022-10-25T06:24:13.019Z,97.44
2022-10-25T06:26:39.439Z,96.38
2022-10-25T06:29:05.799Z,95.76
2022-10-25T06:31:32.079Z,97.72
2022-10-25T06:33:58.340Z,97.94
2022-10-25T06:36:24.811Z,97.78
2022-10-25T06:38:51.131Z,97.56
2022-10-25T06:41:17.427Z,98.10
2022-10-25T06:43:43.707Z,97.31
2022-10-25T06:46:10.001Z,96.74
2022-10-25T06:48:36.418Z,96.67
2022-10-25T06:51:02.964Z,96.44
2022-10-25T06:53:29.228Z,95.14
2022-10-25T06:55:55.475Z,95.76
2022-10-25T06:58:21.730Z,96.01
2022-10-25T07:00:49.657Z,95.33
2022-10-25T07:03:15.996Z,94.67
2022-10-25T07:05:42.280Z,93.46
2022-10-25T07:08:08.518Z,91.82
2022-10-25T07:10:34.827Z,89.70
2022-10-25T07:13:01.078Z,89.37
2022-10-25T07:15:27.355Z,89.90
2022-10-25T07:17:53.606Z,88.24
2022-10-25T07:20:19.864Z,87.87
2022-10-25T07:22:46.387Z,86.65
2022-10-25T07:25:12.637Z,86.64
2022-10-25T07:27:38.935Z,86.04
2022-10-25T07:30:05.207Z,86.42
2022-10-25T07:32:31.502Z,86.62
2022-10-25T07:37:28.919Z,87.31
2022-10-25T07:39:55.178Z,87.74
2022-10-25T07:42:21.431Z,88.00
2022-10-25T07:44:47.714Z,88.71
2022-10-25T07:47:13.995Z,89.51
2022-10-25T07:49:40.293Z,90.06
2022-10-25T07:52:06.549Z,88.96
2022-10-25T07:54:32.897Z,87.75
2022-10-25T07:56:59.274Z,86.01
2022-10-25T07:59:25.526Z,83.09
2022-10-25T08:01:51.880Z,82.18
2022-10-25T08:04:18.335Z,80.48
2022-10-25T08:06:44.694Z,79.38
2022-10-25T08:09:15.026Z,77.02
2022-10-25T08:11:52.909Z,76.58
2022-10-25T08:16:54.270Z,76.31
2022-10-25T08:19:20.517Z,75.42
2022-10-25T08:21:46.803Z,74.37
2022-10-25T08:24:13.202Z,73.77
2022-10-25T08:26:39.707Z,73.52
2022-10-25T08:29:06.011Z,71.33
2022-10-25T08:31:32.291Z,72.19
2022-10-25T08:33:58.591Z,69.94
2022-10-25T08:36:26.462Z,69.97
2022-10-25T08:38:52.900Z,69.97
2022-10-25T08:41:19.151Z,69.83
2022-10-25T08:43:45.784Z,68.96
2022-10-25T08:46:13.641Z,70.56
2022-10-25T08:48:39.927Z,69.01
2022-10-25T08:51:06.188Z,69.84
2022-10-25T08:53:32.904Z,69.48
2022-10-25T08:56:15.717Z,69.91
2022-10-25T08:58:42.700Z,70.03
2022-10-25T09:01:08.988Z,69.38
2022-10-25T09:03:35.317Z,68.66
2022-10-25T09:06:02.220Z,68.16
2022-10-25T09:08:28.499Z,67.80
2022-10-25T09:10:54.790Z,66.51
2022-10-25T09:13:21.042Z,67.16
2022-10-25T09:15:47.295Z,66.21
2022-10-25T09:18:13.580Z,66.62
2022-10-25T09:20:41.514Z,66.09
2022-10-25T09:23:07.750Z,64.68
2022-10-25T09:25:34.002Z,65.82
2022-10-25T09:28:04.259Z,65.47
2022-10-25T09:30:30.522Z,65.80
2022-10-25T09:32:56.884Z,65.92
2022-10-25T09:35:23.159Z,66.30
2022-10-25T09:37:49.811Z,65.72
2022-10-25T09:40:16.366Z,66.72
2022-10-25T09:42:42.651Z,64.64
2022-10-25T09:45:08.919Z,65.14
2022-10-25T09:47:35.208Z,65.90
2022-10-25T09:50:01.463Z,64.71
2022-10-25T09:52:29.003Z,66.19
2022-10-25T09:54:55.254Z,66.86
2022-10-25T09:57:21.501Z,67.61
2022-10-25T09:59:47.759Z,68.46
2022-10-25T10:02:14.114Z,69.44
2022-10-25T10:04:40.476Z,68.68
2022-10-25T10:07:07.134Z,70.13
2022-10-25T10:09:33.394Z,69.09
2022-10-25T10:11:59.644Z,68.87
2022-10-25T10:14:26.071Z,69.23
2022-10-25T10:16:52.332Z,68.88
2022-10-25T10:19:18.603Z,68.24
2022-10-25T10:21:44.914Z,68.75
2022-10-25T10:24:11.165Z,69.22
2022-10-25T10:26:37.452Z,68.93
2022-10-25T10:29:07.855Z,68.87
2022-10-25T10:31:35.874Z,69.06
2022-10-25T10:34:02.141Z,69.54
2022-10-25T10:36:28.451Z,69.40
2022-10-25T10:38:54.823Z,68.43
2022-10-25T10:41:21.095Z,69.11
2022-10-25T10:43:47.372Z,68.94
2022-10-25T10:46:17.093Z,68.52
2022-10-25T10:48:43.511Z,67.84
2022-10-25T10:51:25.229Z,68.50
2022-10-25T10:53:56.078Z,68.11
2022-10-25T10:56:23.127Z,68.93
2022-10-25T10:58:53.240Z,68.86
2022-10-25T11:01:20.113Z,67.76
2022-10-25T11:03:59.123Z,68.21
2022-10-25T11:06:29.586Z,68.24
2022-10-25T11:08:55.845Z,68.88
2022-10-25T11:11:22.116Z,68.56
2022-10-25T11:13:51.146Z,68.81
2022-10-25T11:16:18.908Z,68.85
2022-10-25T11:18:45.902Z,67.88
2022-10-25T11:21:12.217Z,66.99
2022-10-25T11:23:38.495Z,66.41
2022-10-25T11:26:04.811Z,66.07
2022-10-25T11:28:31.075Z,65.21
2022-10-25T11:30:57.339Z,65.17
2022-10-25T11:33:23.613Z,63.15
2022-10-25T11:35:50.040Z,62.30
2022-10-25T11:38:16.351Z,61.84
2022-10-25T11:40:42.706Z,62.84
2022-10-25T11:43:08.971Z,63.23
2022-10-25T11:45:35.310Z,62.48
2022-10-25T11:48:01.581Z,61.67
2022-10-25T11:50:28.048Z,62.70
2022-10-25T11:52:56.096Z,61.22
2022-10-25T11:55:23.487Z,61.31
2022-10-25T11:57:49.793Z,61.06
2022-10-25T12:00:16.114Z,60.88
2022-10-25T12:05:33.288Z,62.13
2022-10-25T12:07:59.540Z,60.84
2022-10-25T12:10:25.799Z,62.35
2022-10-25T12:12:52.099Z,61.93
2022-10-25T12:15:18.414Z,60.71
2022-10-25T12:17:44.700Z,60.86
2022-10-25T12:20:10.951Z,60.36
2022-10-25T12:22:37.269Z,60.50
2022-10-25T12:25:03.564Z,60.23
2022-10-25T12:27:29.822Z,59.72
2022-10-25T12:29:56.092Z,60.13
2022-10-25T12:32:22.359Z,60.19
2022-10-25T12:34:49.129Z,60.02
2022-10-25T12:37:15.420Z,59.71
2022-10-25T12:39:41.714Z,59.38
2022-10-25T12:42:09.220Z,59.68
2022-10-25T12:44:35.494Z,59.13
2022-10-25T12:47:01.769Z,59.04
2022-10-25T12:49:28.029Z,58.81
2022-10-25T12:51:54.289Z,58.93
2022-10-25T12:54:20.551Z,58.34
2022-10-25T12:56:47.015Z,57.71
2022-10-25T12:59:13.321Z,58.58
2022-10-25T13:01:39.693Z,58.17
2022-10-25T13:04:06.082Z,59.05
2022-10-25T13:06:32.407Z,59.08
2022-10-25T13:08:58.658Z,59.90
2022-10-25T13:11:24.938Z,59.20
2022-10-25T13:13:51.229Z,59.77
2022-10-25T13:16:17.612Z,61.30
2022-10-25T13:18:43.960Z,62.18
2022-10-25T13:21:10.234Z,61.80
2022-10-25T13:23:36.549Z,63.26
2022-10-25T13:26:02.799Z,62.85
2022-10-25T13:28:32.721Z,63.98
2022-10-25T13:31:01.622Z,63.25
2022-10-25T13:33:27.920Z,61.70
2022-10-25T13:35:54.187Z,61.53
2022-10-25T13:38:20.463Z,61.28
2022-10-25T13:40:46.711Z,60.54
2022-10-25T13:43:12.985Z,59.67
2022-10-25T13:45:39.293Z,59.94
2022-10-25T13:48:05.590Z,59.31
2022-10-25T13:50:33.131Z,59.84
2022-10-25T13:53:01.736Z,60.70
2022-10-25T13:55:29.312Z,60.59
2022-10-25T13:57:55.613Z,60.29
2022-10-25T14:00:21.921Z,61.00
2022-10-25T14:02:48.585Z,61.06
2022-10-25T14:05:15.032Z,61.16
2022-10-25T14:10:32.199Z,62.10
2022-10-25T14:12:58.470Z,61.00
2022-10-25T14:15:24.726Z,61.59
2022-10-25T14:17:50.998Z,61.49
2022-10-25T14:20:17.269Z,61.83
2022-10-25T14:22:43.580Z,62.17
2022-10-25T14:25:09.841Z,63.38
2022-10-25T14:27:36.131Z,62.47
2022-10-25T14:30:02.437Z,61.92
2022-10-25T14:32:28.752Z,62.54
2022-10-25T14:34:55.006Z,62.78
2022-10-25T14:37:21.254Z,63.04
2022-10-25T14:39:47.507Z,64.27
2022-10-25T14:42:13.795Z,64.27
2022-10-25T14:44:40.227Z,63.79
2022-10-25T14:47:06.479Z,63.31
2022-10-25T14:49:32.745Z,64.38
2022-10-25T14:51:59.039Z,64.69
2022-10-25T14:54:25.311Z,65.14
2022-10-25T14:56:51.612Z,63.41
2022-10-25T14:59:18.064Z,65.12
2022-10-25T15:01:44.352Z,64.69
2022-10-25T15:04:10.640Z,65.45
2022-10-25T15:06:36.898Z,66.40
2022-10-25T15:09:41.813Z,67.15
2022-10-25T15:11:49.656Z,67.28
2022-10-25T15:14:18.914Z,68.16
2022-10-25T15:19:47.944Z,68.22
2022-10-25T15:22:14.231Z,66.97
2022-10-25T15:24:40.499Z,67.78
2022-10-25T15:27:06.770Z,68.97
2022-10-25T15:29:33.058Z,68.76
2022-10-25T15:31:59.336Z,68.82
2022-10-25T15:34:25.615Z,69.74
2022-10-25T15:36:51.964Z,69.81
2022-10-25T15:39:18.227Z,69.71
2022-10-25T15:41:44.485Z,71.25
2022-10-25T15:44:10.752Z,70.78
2022-10-25T15:46:37.975Z,71.28
2022-10-25T15:49:04.233Z,69.84
2022-10-25T15:51:31.207Z,70.80
2022-10-25T15:53:57.754Z,72.11
2022-10-25T15:56:24.374Z,71.85
2022-10-25T15:58:51.364Z,72.22
2022-10-25T16:01:17.631Z,73.25
2022-10-25T16:03:44.078Z,73.54
2022-10-25T16:06:10.340Z,73.74
2022-10-25T16:11:07.980Z,74.95
2022-10-25T16:13:34.240Z,74.84
2022-10-25T16:16:04.611Z,74.31
2022-10-25T16:18:38.163Z,74.55
2022-10-25T16:21:04.414Z,75.50
2022-10-25T16:23:31.091Z,75.28
2022-10-25T16:25:57.419Z,75.36
2022-10-25T16:30:54.952Z,76.83
2022-10-25T16:33:21.207Z,77.10
2022-10-25T16:35:47.494Z,78.03
2022-10-25T16:38:15.573Z,77.00
2022-10-25T16:40:41.840Z,77.10
2022-10-25T16:43:08.150Z,77.17
2022-10-25T16:45:34.458Z,77.53
2022-10-25T16:48:01.001Z,77.22
2022-10-25T16:50:27.287Z,77.29
2022-10-25T16:52:53.621Z,77.15
2022-10-25T16:55:19.907Z,78.15
2022-10-25T16:57:46.175Z,79.24
2022-10-25T17:00:12.452Z,78.59
2022-10-25T17:02:38.917Z,80.17
2022-10-25T17:05:05.216Z,79.76
2022-10-25T17:07:31.518Z,80.87
2022-10-25T17:09:57.821Z,79.74
2022-10-25T17:12:24.085Z,79.58
2022-10-25T17:14:50.342Z,80.34
2022-10-25T17:17:16.645Z,81.21
2022-10-25T17:19:42.945Z,81.97
2022-10-25T17:22:09.222Z,82.76
2022-10-25T17:24:37.469Z,81.65
2022-10-25T17:29:35.015Z,81.06
2022-10-25T17:32:01.283Z,80.70
2022-10-25T17:34:27.596Z,80.99
2022-10-25T17:36:54.055Z,81.22
2022-10-25T17:39:20.370Z,81.02
2022-10-25T17:41:46.618Z,81.52
2022-10-25T17:44:12.930Z,81.53
2022-10-25T17:46:39.339Z,81.58
2022-10-25T17:49:05.893Z,83.30
2022-10-25T17:51:32.227Z,83.00
2022-10-25T17:53:58.492Z,84.00
2022-10-25T17:56:24.821Z,82.96
2022-10-25T17:58:51.988Z,83.44
2022-10-25T18:01:18.244Z,82.96
2022-10-25T18:03:45.768Z,83.45
2022-10-25T18:06:12.167Z,82.94
2022-10-25T18:08:42.130Z,83.91
2022-10-25T18:11:08.774Z,83.43
2022-10-25T18:13:36.975Z,86.08
2022-10-25T18:16:07.803Z,87.18
2022-10-25T18:18:34.326Z,88.23
2022-10-25T18:21:00.581Z,86.98
2022-10-25T18:23:26.891Z,85.68
2022-10-25T18:25:53.229Z,88.81
2022-10-25T18:28:19.693Z,87.57
2022-10-25T18:30:46.003Z,85.69
2022-10-25T18:33:14.628Z,85.30
2022-10-25T18:38:15.709Z,83.98
2022-10-25T18:40:44.115Z,84.31
2022-10-25T18:43:10.398Z,83.70
2022-10-25T18:45:36.674Z,83.72
2022-10-25T18:48:02.945Z,83.89
2022-10-25T18:50:29.210Z,83.33
2022-10-25T18:52:55.467Z,83.12
2022-10-25T18:55:26.461Z,83.43
2022-10-25T18:57:54.710Z,84.25
2022-10-25T19:00:23.603Z,84.73
2022-10-25T19:02:52.392Z,84.57
2022-10-25T19:05:19.017Z,83.46
2022-10-25T19:07:45.424Z,83.52
2022-10-25T19:10:11.840Z,83.97
2022-10-25T19:12:38.094Z,85.55
2022-10-25T19:15:04.508Z,86.22
2022-10-25T19:17:30.767Z,85.71
2022-10-25T19:19:57.093Z,85.31
2022-10-25T19:22:23.342Z,86.10
2022-10-25T19:24:49.647Z,85.24
2022-10-25T19:27:15.941Z,84.82
2022-10-25T19:29:42.204Z,85.40
2022-10-25T19:32:08.466Z,84.96
2022-10-25T19:34:34.764Z,84.14
2022-10-25T19:37:04.458Z,85.84
2022-10-25T19:39:30.712Z,85.95
2022-10-25T19:41:58.979Z,85.55
2022-10-25T19:44:25.247Z,86.03
2022-10-25T19:46:51.502Z,86.55
2022-10-25T19:49:17.763Z,86.28
2022-10-25T19:51:44.013Z,86.36
2022-10-25T19:54:10.331Z,86.02
2022-10-25T19:56:38.561Z,86.10
2022-10-25T19:59:04.939Z,87.83
2022-10-25T20:01:31.337Z,87.86
2022-10-25T20:03:57.716Z,87.31
2022-10-25T20:06:24.904Z,88.22
2022-10-25T20:08:54.931Z,88.60
2022-10-25T20:11:21.199Z,89.64
2022-10-25T20:13:47.476Z,89.11
2022-10-25T20:16:14.027Z,89.25
2022-10-25T20:18:40.286Z,88.68
2022-10-25T20:21:07.284Z,88.04
2022-10-25T20:23:33.534Z,87.62
2022-10-25T20:25:59.786Z,87.29
2022-10-25T20:28:26.060Z,87.13
2022-10-25T20:30:52.316Z,87.56
2022-10-25T20:33:20.372Z,87.34
2022-10-25T20:35:46.627Z,86.94
2022-10-25T20:38:12.949Z,87.58
2022-10-25T20:40:39.242Z,87.79
2022-10-25T20:43:05.489Z,88.01
2022-10-25T20:45:31.758Z,88.67
2022-10-25T20:47:58.008Z,89.20
2022-10-25T20:50:24.264Z,88.55
2022-10-25T20:53:09.370Z,88.42
2022-10-25T20:55:36.676Z,88.21
2022-10-25T20:58:02.971Z,88.08
2022-10-25T21:00:29.274Z,87.75
2022-10-25T21:02:55.530Z,87.89
2022-10-25T21:05:21.787Z,87.60
2022-10-25T21:07:48.368Z,87.77
2022-10-25T21:10:14.779Z,87.65
2022-10-25T21:12:41.084Z,87.60
2022-10-25T21:15:11.804Z,87.50
2022-10-25T21:17:38.641Z,87.61
2022-10-25T21:20:04.924Z,87.83
2022-10-25T21:22:31.176Z,88.17
2022-10-25T21:24:57.437Z,87.87
2022-10-25T21:27:23.732Z,88.40
2022-10-25T21:29:50.062Z,88.78
2022-10-25T21:32:16.347Z,88.41
2022-10-25T21:34:42.600Z,88.74
2022-10-25T21:37:08.880Z,88.57
2022-10-25T21:39:35.171Z,88.32
2022-10-25T21:42:01.424Z,88.92
2022-10-25T21:44:28.740Z,89.14
2022-10-25T21:46:55.036Z,88.64
2022-10-25T21:49:21.388Z,88.53
2022-10-25T21:51:47.783Z,89.16
2022-10-25T21:54:14.083Z,89.07
2022-10-25T21:56:40.336Z,89.00
2022-10-25T21:59:06.598Z,90.26
2022-10-25T22:01:33.020Z,89.54
2022-10-25T22:03:59.375Z,89.37
2022-10-25T22:06:25.654Z,88.84
2022-10-25T22:08:55.898Z,87.87
2022-10-25T22:11:22.178Z,88.06
2022-10-25T22:13:48.429Z,87.46
2022-10-25T22:16:14.681Z,87.60
2022-10-25T22:18:40.959Z,88.19
2022-10-25T22:21:07.280Z,88.75
2022-10-25T22:23:33.526Z,88.14
2022-10-25T22:26:00.097Z,88.63
2022-10-25T22:28:26.348Z,88.66
2022-10-25T22:30:52.595Z,90.38
2022-10-25T22:33:18.843Z,89.75
2022-10-25T22:35:45.156Z,89.55
2022-10-25T22:38:11.411Z,90.48
2022-10-25T22:40:37.684Z,89.71
2022-10-25T22:43:04.244Z,88.99
2022-10-25T22:45:30.514Z,90.08
2022-10-25T22:47:56.771Z,90.16
2022-10-25T22:50:23.029Z,89.32
2022-10-25T22:52:49.280Z,89.08
2022-10-25T22:55:15.541Z,87.95
2022-10-25T22:57:41.786Z,88.11
2022-10-25T23:00:08.034Z,88.09
2022-10-25T23:02:34.296Z,88.18
2022-10-25T23:05:00.546Z,89.03
2022-10-25T23:07:26.961Z,90.44
2022-10-25T23:09:53.698Z,89.71
2022-10-25T23:12:19.950Z,89.07
2022-10-25T23:14:46.196Z,89.71
2022-10-25T23:17:12.479Z,89.01
2022-10-25T23:19:38.736Z,88.54
2022-10-25T23:22:04.999Z,88.09
2022-10-25T23:24:31.264Z,89.04
2022-10-25T23:26:57.506Z,90.48
2022-10-25T23:29:23.769Z,90.53
2022-10-25T23:31:50.026Z,92.88
2022-10-25T23:34:16.336Z,92.62
2022-10-25T23:36:42.622Z,92.27
2022-10-25T23:39:08.893Z,93.04
2022-10-25T23:41:35.190Z,93.20
2022-10-25T23:44:01.434Z,92.76
2022-10-25T23:46:27.676Z,92.51
2022-10-25T23:48:56.019Z,92.13
2022-10-25T23:51:22.340Z,90.98
2022-10-25T23:53:48.795Z,91.84
2022-10-25T23:56:15.058Z,91.62
2022-10-25T23:58:41.338Z,90.63
